createdAt,value
2022-11-15T00:01:00.528Z,82.94
2022-11-15T00:03:46.991Z,82.76
2022-11-15T00:06:32.075Z,82.45
2022-11-15T00:09:17.229Z,82.47
2022-11-15T00:12:02.195Z,82.58
2022-11-15T00:14:47.152Z,82.57
2022-11-15T00:17:31.961Z,83.08
2022-11-15T00:20:18.524Z,83.57
2022-11-15T00:23:05.294Z,83.42
2022-11-15T00:25:57.407Z,83.51
2022-11-15T00:28:43.038Z,84.13
2022-11-15T00:31:28.250Z,84.03
2022-11-15T00:34:13.182Z,83.86
2022-11-15T00:36:58.493Z,83.89
2022-11-15T00:39:43.358Z,84.00
2022-11-15T00:42:28.321Z,84.77
2022-11-15T00:45:13.230Z,84.81
2022-11-15T00:47:58.159Z,84.84
2022-11-15T00:50:43.171Z,84.92
2022-11-15T00:53:28.534Z,85.46
2022-11-15T00:56:13.773Z,85.01
2022-11-15T00:58:58.642Z,84.64
2022-11-15T01:01:43.831Z,84.15
2022-11-15T01:04:28.785Z,85.06
2022-11-15T01:07:14.176Z,84.99
2022-11-15T01:09:59.503Z,85.25
2022-11-15T01:12:44.507Z,85.16
2022-11-15T01:15:29.434Z,85.01
2022-11-15T01:18:14.337Z,85.12
2022-11-15T01:20:59.198Z,84.97
2022-11-15T01:23:44.409Z,84.99
2022-11-15T01:26:29.204Z,84.93
2022-11-15T01:29:14.560Z,84.62
2022-11-15T01:31:59.500Z,85.88
2022-11-15T01:34:44.527Z,86.00
2022-11-15T01:37:29.633Z,85.89
2022-11-15T01:40:14.669Z,86.38
2022-11-15T01:42:59.666Z,86.36
2022-11-15T01:45:46.750Z,86.45
2022-11-15T01:48:35.367Z,86.66
2022-11-15T01:51:22.866Z,86.55
2022-11-15T01:54:16.683Z,86.68
2022-11-15T01:57:09.502Z,87.24
2022-11-15T01:59:55.112Z,87.09
2022-11-15T02:02:41.046Z,87.14
2022-11-15T02:05:27.314Z,86.86
2022-11-15T02:08:20.797Z,86.77
2022-11-15T02:11:09.163Z,86.99
2022-11-15T02:13:55.209Z,86.71
2022-11-15T02:16:49.428Z,86.86
2022-11-15T02:19:34.178Z,86.13
2022-11-15T02:22:22.011Z,86.14
2022-11-15T02:25:25.187Z,86.13
2022-11-15T02:28:25.806Z,86.10
2022-11-15T02:31:36.565Z,86.24
2022-11-15T02:34:29.588Z,86.58
2022-11-15T02:37:20.193Z,86.76
2022-11-15T02:40:13.849Z,86.91
2022-11-15T02:43:27.493Z,86.48
2022-11-15T02:46:45.416Z,87.14
2022-11-15T02:49:34.319Z,87.06
2022-11-15T02:52:22.312Z,87.23
2022-11-15T02:55:27.022Z,87.10
2022-11-15T02:58:30.698Z,86.31
2022-11-15T03:01:37.189Z,86.46
2022-11-15T03:04:47.143Z,85.86
2022-11-15T03:07:39.718Z,85.43
2022-11-15T03:10:37.774Z,85.78
2022-11-15T03:13:38.739Z,85.70
2022-11-15T03:16:55.322Z,86.10
2022-11-15T03:19:46.856Z,86.72
2022-11-15T03:22:37.687Z,86.64
2022-11-15T03:25:26.966Z,86.10
2022-11-15T03:28:15.980Z,86.07
2022-11-15T03:31:24.185Z,86.41
2022-11-15T03:34:15.166Z,86.78
2022-11-15T03:37:00.477Z,87.05
2022-11-15T03:39:45.726Z,86.91
2022-11-15T03:42:58.614Z,86.94
2022-11-15T03:45:59.819Z,86.90
2022-11-15T03:48:50.960Z,86.78
2022-11-15T03:51:36.039Z,86.61
2022-11-15T03:54:21.295Z,86.60
2022-11-15T03:57:06.048Z,86.17
2022-11-15T03:59:50.967Z,86.56
2022-11-15T04:02:35.702Z,86.84
2022-11-15T04:05:21.036Z,86.69
2022-11-15T04:08:05.886Z,86.99
2022-11-15T04:10:50.872Z,86.77
2022-11-15T04:13:36.026Z,86.82
2022-11-15T04:16:21.046Z,87.34
2022-11-15T04:19:24.473Z,87.36
2022-11-15T04:22:28.378Z,87.45
2022-11-15T04:25:13.551Z,87.73
2022-11-15T04:27:58.542Z,87.32
2022-11-15T04:30:43.494Z,87.17
2022-11-15T04:33:28.427Z,87.96
2022-11-15T04:36:32.572Z,87.63
2022-11-15T04:39:17.760Z,87.69
2022-11-15T04:42:02.807Z,87.43
2022-11-15T04:44:47.716Z,87.39
2022-11-15T04:47:32.519Z,87.27
2022-11-15T04:50:18.043Z,87.57
2022-11-15T04:53:03.267Z,87.89
2022-11-15T04:55:48.208Z,87.62
2022-11-15T04:58:33.095Z,87.74
2022-11-15T05:01:18.472Z,87.43
2022-11-15T05:04:22.121Z,87.16
2022-11-15T05:07:06.986Z,87.22
2022-11-15T05:09:52.393Z,87.18
2022-11-15T05:12:37.545Z,87.98
2022-11-15T05:15:23.099Z,88.15
2022-11-15T05:18:08.161Z,87.89
2022-11-15T05:20:53.163Z,88.07
2022-11-15T05:23:38.635Z,87.61
2022-11-15T05:26:23.524Z,87.40
2022-11-15T05:29:11.469Z,87.64
2022-11-15T05:31:56.623Z,88.05
2022-11-15T05:34:41.590Z,87.67
2022-11-15T05:37:26.595Z,87.54
2022-11-15T05:40:11.515Z,87.31
2022-11-15T05:42:57.179Z,87.76
2022-11-15T05:45:42.283Z,87.82
2022-11-15T05:48:28.226Z,87.75
2022-11-15T05:51:15.136Z,87.70
2022-11-15T05:54:01.359Z,87.14
2022-11-15T05:56:47.043Z,86.72
2022-11-15T05:59:33.095Z,86.96
2022-11-15T06:02:18.064Z,86.89
2022-11-15T06:05:03.009Z,87.10
2022-11-15T06:07:48.099Z,87.69
2022-11-15T06:10:33.849Z,87.50
2022-11-15T06:13:18.932Z,87.64
2022-11-15T06:16:04.158Z,87.72
2022-11-15T06:18:49.325Z,87.40
2022-11-15T06:21:34.453Z,87.74
2022-11-15T06:24:19.389Z,87.70
2022-11-15T06:27:04.514Z,87.10
2022-11-15T06:29:49.758Z,87.31
2022-11-15T06:32:34.581Z,87.67
2022-11-15T06:35:19.629Z,87.69
2022-11-15T06:38:07.287Z,87.87
2022-11-15T06:40:52.382Z,87.64
2022-11-15T06:43:38.538Z,87.66
2022-11-15T06:46:23.633Z,88.45
2022-11-15T06:49:09.939Z,87.90
2022-11-15T06:51:55.185Z,87.99
2022-11-15T06:54:40.179Z,87.96
2022-11-15T06:57:25.213Z,87.67
2022-11-15T07:00:13.913Z,88.04
2022-11-15T07:03:01.541Z,87.93
2022-11-15T07:05:55.363Z,88.04
2022-11-15T07:08:42.529Z,88.08
2022-11-15T07:11:27.563Z,87.90
2022-11-15T07:14:12.451Z,88.38
2022-11-15T07:16:58.425Z,88.54
2022-11-15T07:19:43.240Z,88.28
2022-11-15T07:22:28.226Z,88.17
2022-11-15T07:25:13.016Z,88.56
2022-11-15T07:27:59.320Z,88.73
2022-11-15T07:30:46.862Z,87.54
2022-11-15T07:33:32.391Z,87.81
2022-11-15T07:36:17.915Z,87.76
2022-11-15T07:39:03.145Z,87.10
2022-11-15T07:41:49.101Z,88.42
2022-11-15T07:44:34.207Z,87.44
2022-11-15T07:47:19.670Z,87.55
2022-11-15T07:50:05.343Z,87.77
2022-11-15T07:53:00.895Z,87.41
2022-11-15T07:55:46.214Z,87.49
2022-11-15T07:58:31.085Z,87.20
2022-11-15T08:01:16.043Z,87.75
2022-11-15T08:04:01.357Z,87.26
2022-11-15T08:07:10.720Z,86.91
2022-11-15T08:09:56.211Z,86.99
2022-11-15T08:12:41.153Z,87.25
2022-11-15T08:15:26.903Z,87.32
2022-11-15T08:18:16.684Z,87.52
2022-11-15T08:21:02.275Z,87.36
2022-11-15T08:23:47.546Z,86.86
2022-11-15T08:26:32.354Z,87.20
2022-11-15T08:29:17.152Z,86.47
2022-11-15T08:32:01.998Z,85.62
2022-11-15T08:34:47.015Z,86.55
2022-11-15T08:37:32.273Z,86.56
2022-11-15T08:40:18.460Z,86.42
2022-11-15T08:43:03.934Z,86.70
2022-11-15T08:45:49.179Z,86.58
2022-11-15T08:48:34.344Z,86.43
2022-11-15T08:51:19.610Z,86.47
2022-11-15T08:54:05.031Z,86.66
2022-11-15T08:56:50.227Z,86.21
2022-11-15T08:59:35.167Z,86.22
2022-11-15T09:02:20.085Z,86.19
2022-11-15T09:05:06.508Z,86.40
2022-11-15T09:07:56.164Z,85.69
2022-11-15T09:10:49.829Z,85.56
2022-11-15T09:13:35.736Z,85.07
2022-11-15T09:21:11.503Z,85.67
2022-11-15T09:23:57.019Z,85.52
2022-11-15T09:26:42.225Z,85.36
2022-11-15T09:29:27.583Z,85.06
2022-11-15T09:32:12.728Z,84.66
2022-11-15T09:34:58.460Z,85.20
2022-11-15T09:37:43.759Z,84.99
2022-11-15T09:40:32.073Z,85.06
2022-11-15T09:43:38.363Z,84.13
2022-11-15T09:46:38.682Z,85.06
2022-11-15T09:49:25.136Z,85.30
2022-11-15T09:52:11.368Z,84.25
2022-11-15T09:54:56.275Z,85.05
2022-11-15T09:57:38.672Z,84.41
2022-11-15T10:03:24.755Z,83.25
2022-11-15T10:05:55.161Z,83.71
2022-11-15T10:08:52.768Z,84.05
2022-11-15T10:11:38.259Z,83.88
2022-11-15T10:14:19.331Z,83.02
2022-11-15T10:17:04.793Z,82.84
2022-11-15T10:20:06.603Z,83.35
2022-11-15T10:22:48.512Z,82.71
2022-11-15T10:25:25.406Z,83.57
2022-11-15T10:28:00.155Z,82.93
2022-11-15T10:30:57.667Z,83.46
2022-11-15T10:33:38.049Z,81.90
2022-11-15T10:36:09.735Z,83.09
2022-11-15T10:38:51.564Z,81.73
2022-11-15T10:41:28.348Z,82.37
2022-11-15T10:44:24.643Z,82.43
2022-11-15T10:46:57.513Z,83.15
2022-11-15T10:49:29.748Z,82.47
2022-11-15T10:52:13.080Z,81.98
2022-11-15T10:54:56.875Z,81.98
2022-11-15T10:57:27.722Z,81.71
2022-11-15T11:00:01.361Z,81.74
2022-11-15T11:02:33.909Z,80.80
2022-11-15T11:05:01.476Z,81.22
2022-11-15T11:07:31.348Z,81.04
2022-11-15T11:10:00.558Z,80.83
2022-11-15T11:12:32.586Z,80.36
2022-11-15T11:15:00.915Z,80.66
2022-11-15T11:18:17.563Z,81.89
2022-11-15T11:20:54.528Z,81.74
2022-11-15T11:23:47.344Z,81.89
2022-11-15T11:26:37.010Z,80.40
2022-11-15T11:29:13.876Z,80.66
2022-11-15T11:32:22.397Z,80.46
2022-11-15T11:34:54.619Z,80.18
2022-11-15T11:37:30.182Z,79.84
2022-11-15T11:40:23.566Z,78.98
2022-11-15T11:43:00.382Z,78.51
2022-11-15T11:45:58.938Z,78.08
2022-11-15T11:48:45.211Z,78.75
2022-11-15T11:51:24.257Z,79.03
2022-11-15T11:53:56.982Z,78.58
2022-11-15T11:56:30.077Z,79.57
2022-11-15T11:59:06.928Z,79.46
2022-11-15T12:01:38.677Z,79.97
2022-11-15T12:04:17.540Z,80.68
2022-11-15T12:06:52.913Z,79.00
2022-11-15T12:09:36.190Z,78.59
2022-11-15T12:12:33.196Z,78.99
2022-11-15T12:15:03.319Z,79.38
2022-11-15T12:17:32.998Z,78.89
2022-11-15T12:20:02.409Z,77.84
2022-11-15T12:22:54.549Z,77.46
2022-11-15T12:25:26.636Z,77.32
2022-11-15T12:28:02.912Z,77.21
2022-11-15T12:30:52.658Z,78.29
2022-11-15T12:33:35.492Z,77.66
2022-11-15T12:36:25.067Z,78.21
2022-11-15T12:39:10.805Z,77.35
2022-11-15T12:41:42.981Z,78.92
2022-11-15T12:44:33.149Z,79.25
2022-11-15T12:47:11.402Z,78.95
2022-11-15T12:49:37.845Z,77.87
2022-11-15T12:52:07.958Z,78.64
2022-11-15T12:54:37.056Z,78.61
2022-11-15T12:57:03.510Z,77.84
2022-11-15T13:00:05.232Z,77.85
2022-11-15T13:02:44.492Z,78.11
2022-11-15T13:05:16.986Z,77.24
2022-11-15T13:07:43.437Z,78.38
2022-11-15T13:10:12.859Z,77.98
2022-11-15T13:12:42.541Z,76.21
2022-11-15T13:15:14.686Z,77.41
2022-11-15T13:17:48.062Z,77.23
2022-11-15T13:20:17.469Z,77.61
2022-11-15T13:22:51.628Z,77.58
2022-11-15T13:25:37.082Z,78.24
2022-11-15T13:28:15.636Z,77.20
2022-11-15T13:30:51.156Z,76.57
2022-11-15T13:33:22.190Z,76.28
2022-11-15T13:35:57.804Z,77.92
2022-11-15T13:38:38.527Z,78.43
2022-11-15T13:41:21.170Z,79.82
2022-11-15T13:43:49.344Z,79.83
2022-11-15T13:46:21.879Z,77.55
2022-11-15T13:48:54.101Z,76.57
2022-11-15T13:51:26.235Z,76.89
2022-11-15T13:53:59.412Z,78.05
2022-11-15T13:56:28.523Z,78.19
2022-11-15T13:58:55.850Z,77.44
2022-11-15T14:01:24.801Z,79.16
2022-11-15T14:03:58.572Z,79.93
2022-11-15T14:06:30.320Z,79.29
2022-11-15T14:09:17.054Z,78.85
2022-11-15T14:11:55.156Z,79.04
2022-11-15T14:14:26.712Z,79.35
2022-11-15T14:17:00.985Z,78.12
2022-11-15T14:19:27.365Z,78.20
2022-11-15T14:22:18.491Z,77.25
2022-11-15T14:24:48.034Z,77.30
2022-11-15T14:27:17.425Z,78.11
2022-11-15T14:29:43.873Z,77.97
2022-11-15T14:32:21.918Z,78.20
2022-11-15T14:34:50.386Z,78.87
2022-11-15T14:37:24.195Z,78.00
2022-11-15T14:39:51.422Z,78.12
2022-11-15T14:42:18.630Z,77.68
2022-11-15T14:44:46.285Z,78.13
2022-11-15T14:47:13.235Z,78.13
2022-11-15T14:49:40.111Z,79.16
2022-11-15T14:52:32.165Z,78.01
2022-11-15T14:55:00.185Z,78.48
2022-11-15T14:57:26.767Z,79.86
2022-11-15T14:59:54.059Z,79.21
2022-11-15T15:02:22.538Z,78.88
2022-11-15T15:04:50.306Z,79.19
2022-11-15T15:07:17.997Z,79.03
2022-11-15T15:09:45.195Z,79.20
2022-11-15T15:12:18.013Z,79.20
2022-11-15T15:14:45.691Z,79.23
2022-11-15T15:17:12.197Z,79.91
2022-11-15T15:19:38.645Z,80.33
2022-11-15T15:22:05.451Z,79.98
2022-11-15T15:24:31.885Z,79.30
2022-11-15T15:26:58.335Z,80.35
2022-11-15T15:29:24.781Z,79.67
2022-11-15T15:31:51.218Z,80.22
2022-11-15T15:34:17.665Z,80.30
2022-11-15T15:37:25.671Z,80.05
2022-11-15T15:39:54.832Z,79.02
2022-11-15T15:42:22.455Z,80.68
2022-11-15T15:44:50.340Z,80.50
2022-11-15T15:47:23.225Z,79.28
2022-11-15T15:49:51.060Z,80.58
2022-11-15T15:52:18.081Z,80.43
2022-11-15T15:54:44.663Z,79.89
2022-11-15T15:57:14.456Z,79.67
2022-11-15T15:59:41.494Z,80.53
2022-11-15T16:02:12.512Z,80.36
2022-11-15T16:04:39.087Z,80.46
2022-11-15T16:07:05.678Z,80.85
2022-11-15T16:09:51.003Z,80.63
2022-11-15T16:12:17.614Z,80.38
2022-11-15T16:14:44.060Z,81.62
2022-11-15T16:17:17.831Z,81.10
2022-11-15T16:19:44.274Z,81.52
2022-11-15T16:22:10.722Z,80.82
2022-11-15T16:24:37.268Z,81.05
2022-11-15T16:27:03.780Z,80.64
2022-11-15T16:29:30.640Z,81.67
2022-11-15T16:31:57.130Z,81.07
2022-11-15T16:34:23.736Z,81.37
2022-11-15T16:36:51.171Z,81.57
2022-11-15T16:39:19.421Z,80.59
2022-11-15T16:41:47.680Z,81.51
2022-11-15T16:44:14.882Z,81.91
2022-11-15T16:46:43.063Z,81.52
2022-11-15T16:49:15.369Z,81.75
2022-11-15T16:51:44.898Z,81.98
2022-11-15T16:54:11.355Z,80.87
2022-11-15T16:56:38.436Z,80.82
2022-11-15T16:59:05.287Z,80.84
2022-11-15T17:01:35.721Z,81.84
2022-11-15T17:04:16.391Z,81.30
2022-11-15T17:06:45.157Z,81.55
2022-11-15T17:09:17.139Z,82.22
2022-11-15T17:11:44.487Z,81.99
2022-11-15T17:14:11.943Z,81.78
2022-11-15T17:16:42.316Z,81.83
2022-11-15T17:19:14.256Z,82.15
2022-11-15T17:21:41.309Z,81.77
2022-11-15T17:24:07.995Z,81.57
2022-11-15T17:26:39.217Z,81.78
2022-11-15T17:29:08.051Z,82.63
2022-11-15T17:31:36.218Z,83.12
2022-11-15T17:34:05.104Z,82.06
2022-11-15T17:36:32.221Z,82.81
2022-11-15T17:38:59.920Z,83.10
2022-11-15T17:41:27.977Z,82.53
2022-11-15T17:43:58.011Z,82.45
2022-11-15T17:46:24.556Z,82.74
2022-11-15T17:48:51.083Z,82.64
2022-11-15T17:51:18.817Z,82.43
2022-11-15T17:53:47.198Z,81.99
2022-11-15T17:56:18.866Z,82.04
2022-11-15T17:58:59.556Z,82.61
2022-11-15T18:01:28.885Z,82.27
2022-11-15T18:03:57.087Z,82.55
2022-11-15T18:06:24.790Z,82.65
2022-11-15T18:08:53.608Z,82.62
2022-11-15T18:11:22.777Z,82.66
2022-11-15T18:13:57.345Z,82.32
2022-11-15T18:16:26.214Z,82.82
2022-11-15T18:18:53.856Z,82.84
2022-11-15T18:21:23.013Z,82.39
2022-11-15T18:23:54.195Z,83.06
2022-11-15T18:26:25.748Z,83.34
2022-11-15T18:28:56.064Z,82.86
2022-11-15T18:31:27.896Z,83.44
2022-11-15T18:33:54.913Z,83.29
2022-11-15T18:36:24.213Z,83.07
2022-11-15T18:39:04.508Z,83.62
2022-11-15T18:41:32.554Z,83.73
2022-11-15T18:44:00.985Z,83.35
2022-11-15T18:46:30.771Z,83.20
2022-11-15T18:48:59.558Z,83.55
2022-11-15T18:51:29.908Z,82.99
2022-11-15T18:53:59.284Z,83.27
2022-11-15T18:56:27.746Z,83.78
2022-11-15T18:58:56.291Z,83.12
2022-11-15T19:01:28.279Z,83.87
2022-11-15T19:03:58.130Z,83.20
2022-11-15T19:06:28.906Z,83.24
2022-11-15T19:08:57.324Z,83.71
2022-11-15T19:11:32.427Z,83.59
2022-11-15T19:14:03.017Z,83.33
2022-11-15T19:16:31.313Z,82.61
2022-11-15T19:18:59.859Z,83.14
2022-11-15T19:21:27.403Z,83.22
2022-11-15T19:23:54.256Z,83.53
2022-11-15T19:26:22.491Z,82.73
2022-11-15T19:28:53.928Z,83.19
2022-11-15T19:31:21.965Z,83.17
2022-11-15T19:33:48.395Z,83.89
2022-11-15T19:36:26.921Z,83.67
2022-11-15T19:38:54.505Z,83.65
2022-11-15T19:41:22.884Z,84.03
2022-11-15T19:43:53.074Z,83.75
2022-11-15T19:46:21.887Z,83.74
2022-11-15T19:48:48.554Z,83.50
2022-11-15T19:51:19.185Z,83.84
2022-11-15T19:53:45.877Z,84.25
2022-11-15T19:56:14.446Z,84.10
2022-11-15T19:58:41.519Z,83.63
2022-11-15T20:01:14.955Z,83.75
2022-11-15T20:03:41.664Z,83.69
2022-11-15T20:06:11.050Z,84.09
2022-11-15T20:08:37.952Z,83.58
2022-11-15T20:11:05.654Z,84.28
2022-11-15T20:13:32.304Z,84.52
2022-11-15T20:15:59.585Z,84.06
2022-11-15T20:18:28.012Z,84.06
2022-11-15T20:20:56.530Z,84.26
2022-11-15T20:23:23.279Z,83.88
2022-11-15T20:25:50.254Z,83.79
2022-11-15T20:28:36.905Z,83.47
2022-11-15T20:31:04.318Z,83.75
2022-11-15T20:33:30.814Z,83.50
2022-11-15T20:35:57.317Z,84.15
2022-11-15T20:38:24.265Z,83.69
2022-11-15T20:40:56.021Z,83.85
2022-11-15T20:43:25.483Z,83.66
2022-11-15T20:45:52.055Z,84.41
2022-11-15T20:48:18.548Z,84.13
2022-11-15T20:50:46.531Z,83.89
2022-11-15T20:53:15.513Z,83.57
2022-11-15T20:55:44.383Z,83.74
2022-11-15T20:58:11.593Z,83.50
2022-11-15T21:00:38.399Z,83.78
2022-11-15T21:03:08.736Z,84.01
2022-11-15T21:05:38.486Z,84.27
2022-11-15T21:08:05.252Z,84.35
2022-11-15T21:10:51.014Z,84.76
2022-11-15T21:13:17.691Z,84.27
2022-11-15T21:15:44.179Z,84.51
2022-11-15T21:18:10.645Z,84.62
2022-11-15T21:20:37.175Z,84.43
2022-11-15T21:23:03.827Z,84.11
2022-11-15T21:25:30.286Z,84.28
2022-11-15T21:27:56.730Z,84.07
2022-11-15T21:30:23.237Z,83.84
2022-11-15T21:32:49.727Z,83.80
2022-11-15T21:35:16.290Z,84.15
2022-11-15T21:37:42.836Z,84.27
2022-11-15T21:40:09.880Z,84.31
2022-11-15T21:42:36.329Z,84.01
2022-11-15T21:45:03.659Z,84.09
2022-11-15T21:47:30.316Z,84.21
2022-11-15T21:49:56.999Z,84.49
2022-11-15T21:52:23.421Z,84.44
2022-11-15T21:54:49.859Z,84.55
2022-11-15T21:57:16.322Z,84.55
2022-11-15T22:00:01.521Z,84.37
2022-11-15T22:02:30.981Z,84.62
2022-11-15T22:04:57.604Z,84.80
2022-11-15T22:07:24.069Z,84.92
2022-11-15T22:09:50.683Z,84.26
2022-11-15T22:12:17.126Z,84.07
2022-11-15T22:14:43.566Z,84.45
2022-11-15T22:17:10.517Z,84.26
2022-11-15T22:19:51.559Z,84.62
2022-11-15T22:22:18.976Z,84.64
2022-11-15T22:24:45.495Z,84.21
2022-11-15T22:27:11.933Z,84.04
2022-11-15T22:29:38.389Z,84.31
2022-11-15T22:32:04.950Z,84.21
2022-11-15T22:34:31.450Z,83.92
2022-11-15T22:39:44.318Z,84.47
2022-11-15T22:42:10.813Z,84.25
2022-11-15T22:44:37.303Z,84.31
2022-11-15T22:47:03.782Z,84.37
2022-11-15T22:49:30.236Z,84.41
2022-11-15T22:51:56.678Z,84.59
2022-11-15T22:54:23.175Z,84.59
2022-11-15T22:56:49.778Z,84.32
2022-11-15T22:59:16.222Z,84.45
2022-11-15T23:01:42.972Z,84.64
2022-11-15T23:04:09.406Z,84.56
2022-11-15T23:06:35.965Z,84.56
2022-11-15T23:09:02.436Z,84.73
2022-11-15T23:11:49.178Z,84.14
2022-11-15T23:14:15.803Z,84.30
2022-11-15T23:16:42.329Z,84.24
2022-11-15T23:19:10.640Z,84.07
2022-11-15T23:22:00.296Z,84.38
2022-11-15T23:24:27.238Z,84.29
2022-11-15T23:26:56.927Z,84.16
2022-11-15T23:29:25.385Z,84.07
2022-11-15T23:32:12.196Z,84.19
2022-11-15T23:34:41.598Z,84.28
2022-11-15T23:37:09.825Z,84.60
2022-11-15T23:39:36.323Z,84.29
2022-11-15T23:42:07.688Z,84.66
2022-11-15T23:44:35.713Z,84.47
2022-11-15T23:47:02.293Z,84.31
2022-11-15T23:49:28.730Z,84.92
2022-11-15T23:51:55.310Z,84.77
2022-11-15T23:54:21.791Z,84.68
2022-11-15T23:56:48.262Z,84.52
2022-11-15T23:59:14.741Z,84.81
